createdAt,value
2018-12-05T16:22:40.155Z,21.70
2018-12-05T16:25:10.529Z,23.62
2018-12-05T16:30:18.666Z,22.63
2018-12-05T16:32:48.969Z,22.47
2018-12-05T16:35:19.298Z,22.60
2018-12-05T16:37:49.560Z,24.57
2018-12-05T16:40:20.054Z,24.00
2018-12-05T16:42:50.571Z,24.23
2018-12-05T16:45:20.830Z,23.90
2018-12-05T16:47:52.015Z,25.50
2018-12-05T16:50:22.781Z,27.27
2018-12-05T16:52:52.891Z,27.43
2018-12-05T16:55:22.936Z,27.48
2018-12-05T16:57:53.870Z,26.70
2018-12-05T17:00:25.354Z,26.83
2018-12-05T17:02:56.252Z,26.37
2018-12-05T17:05:26.782Z,28.03
2018-12-05T17:07:57.319Z,27.80
2018-12-05T17:10:27.552Z,26.70
2018-12-05T17:12:57.772Z,26.30
2018-12-05T17:18:07.247Z,31.73
2018-12-05T17:20:37.350Z,31.00
2018-12-05T17:23:07.417Z,32.30
2018-12-05T17:25:37.600Z,34.37
2018-12-05T17:28:07.800Z,36.37
2018-12-05T17:30:38.679Z,37.17
2018-12-05T17:35:49.892Z,38.17
2018-12-05T17:38:19.878Z,39.55
2018-12-05T17:40:50.123Z,40.67
2018-12-05T17:43:20.522Z,39.53
2018-12-05T17:48:30.059Z,38.20
2018-12-05T17:51:00.398Z,37.00
2018-12-05T17:53:30.494Z,35.40
2018-12-05T17:56:00.976Z,40.67
2018-12-05T17:58:31.426Z,45.87
2018-12-05T18:01:01.824Z,48.47
2018-12-05T18:03:32.016Z,50.33
2018-12-05T18:06:02.497Z,52.33
2018-12-05T18:08:33.545Z,53.50
2018-12-05T18:11:03.947Z,55.03
2018-12-05T18:13:34.109Z,55.70
2018-12-05T18:16:04.298Z,54.10
2018-12-05T18:18:34.877Z,54.03
2018-12-05T18:21:06.586Z,55.37
2018-12-05T18:23:37.776Z,57.67
2018-12-05T18:26:07.998Z,59.40
2018-12-05T18:28:38.575Z,58.07
2018-12-05T18:31:08.707Z,57.07
2018-12-05T18:33:39.127Z,58.73
2018-12-05T18:36:09.369Z,55.97
2018-12-05T18:38:39.837Z,58.40
2018-12-05T18:41:09.894Z,55.67
2018-12-05T18:43:39.934Z,57.87
2018-12-05T18:46:10.395Z,55.80
2018-12-05T18:48:41.093Z,56.25
2018-12-05T18:51:11.199Z,57.17
2018-12-05T18:53:42.071Z,58.93
2018-12-05T18:56:12.375Z,57.47
2018-12-05T18:58:42.754Z,56.03
2018-12-05T19:01:13.410Z,57.33
2018-12-05T19:03:43.831Z,57.73
2018-12-05T19:06:14.034Z,56.92
2018-12-05T19:08:44.521Z,58.93
2018-12-05T19:11:14.942Z,58.73
2018-12-05T19:14:51.778Z,57.50
2018-12-05T19:17:23.053Z,59.47
2018-12-05T19:19:53.436Z,59.13
2018-12-05T19:22:24.320Z,61.55
2018-12-05T19:24:54.438Z,63.80
2018-12-05T19:27:24.942Z,61.10
2018-12-05T19:29:56.075Z,63.70
2018-12-05T19:32:27.514Z,68.23
2018-12-05T19:34:59.873Z,67.83
2018-12-05T19:37:30.467Z,71.30
2018-12-05T19:42:38.056Z,68.23
2018-12-05T19:45:09.910Z,69.37
2018-12-05T19:47:40.221Z,65.03
2018-12-05T19:50:10.630Z,67.60
2018-12-05T19:52:41.415Z,64.17
2018-12-05T19:55:13.459Z,65.20
2018-12-05T19:57:44.407Z,69.07
2018-12-05T20:00:16.937Z,69.62
2018-12-05T20:02:47.366Z,71.37
2018-12-05T20:05:17.526Z,71.40
2018-12-05T20:07:48.827Z,72.10
2018-12-05T20:10:18.910Z,74.87
2018-12-05T20:12:49.494Z,74.83
2018-12-05T20:15:21.483Z,75.83
2018-12-05T20:17:52.259Z,78.13
2018-12-05T20:20:22.517Z,78.87
2018-12-05T20:22:53.180Z,78.03
2018-12-05T20:25:28.530Z,79.67
2018-12-05T20:27:59.337Z,77.85
2018-12-05T20:30:30.326Z,80.17
2018-12-05T20:33:01.468Z,78.70
2018-12-05T20:35:32.610Z,78.00
2018-12-05T20:38:03.360Z,78.70
2018-12-05T20:40:34.028Z,80.57
2018-12-05T20:43:05.369Z,82.93
2018-12-05T20:45:36.028Z,80.13
2018-12-05T20:48:06.580Z,83.40
2018-12-05T20:50:43.205Z,83.80
2018-12-05T20:53:13.815Z,81.37
2018-12-05T20:55:44.694Z,81.50
2018-12-05T20:58:15.459Z,82.50
2018-12-05T21:00:45.983Z,83.23
2018-12-05T21:03:16.674Z,81.92
2018-12-05T21:05:47.026Z,79.10
2018-12-05T21:08:17.436Z,77.90
2018-12-05T21:10:48.016Z,76.30
2018-12-05T21:13:18.412Z,78.17
2018-12-05T21:15:48.748Z,75.83
2018-12-05T21:21:29.303Z,79.50
2018-12-05T21:23:59.817Z,76.02
2018-12-05T21:26:30.177Z,75.77
2018-12-05T21:29:00.975Z,76.87
2018-12-05T21:31:31.483Z,77.67
2018-12-05T21:34:04.654Z,74.30
2018-12-05T21:36:35.952Z,71.13
2018-12-05T21:39:08.915Z,69.30
2018-12-05T21:41:39.781Z,65.63
2018-12-05T21:44:09.947Z,66.22
2018-12-05T21:46:40.394Z,65.05
2018-12-05T21:49:10.926Z,69.33
2018-12-05T21:51:45.158Z,70.03
2018-12-05T21:54:16.811Z,71.30
2018-12-05T21:56:48.154Z,70.73
2018-12-05T21:59:18.815Z,70.27
2018-12-05T22:01:50.059Z,71.10
2018-12-05T22:04:20.560Z,73.50
2018-12-05T22:06:51.900Z,77.97
2018-12-05T22:09:22.740Z,88.20
2018-12-05T22:11:52.995Z,85.93
2018-12-05T22:14:24.029Z,81.92
2018-12-05T22:16:55.355Z,89.87
2018-12-05T22:19:26.099Z,89.00
2018-12-05T22:21:56.522Z,84.10
2018-12-05T22:24:26.934Z,86.30
2018-12-05T22:26:57.842Z,82.27
2018-12-05T22:29:28.600Z,82.85
2018-12-05T22:31:59.498Z,87.73
2018-12-05T22:34:29.802Z,81.93
2018-12-05T22:37:00.521Z,88.20
2018-12-05T22:39:31.371Z,82.50
2018-12-05T22:42:02.461Z,79.47
2018-12-05T22:44:32.856Z,81.33
2018-12-05T22:47:03.419Z,82.83
2018-12-05T22:49:33.858Z,77.60
2018-12-05T22:52:04.113Z,78.50
2018-12-05T22:54:34.812Z,78.23
2018-12-05T22:57:14.221Z,71.17
2018-12-05T22:59:44.780Z,69.90
2018-12-05T23:02:15.494Z,75.37
2018-12-05T23:04:46.008Z,83.33
2018-12-05T23:07:16.602Z,87.63
2018-12-05T23:09:47.031Z,88.10
2018-12-05T23:12:21.456Z,85.53
2018-12-05T23:14:52.269Z,81.17
2018-12-05T23:17:22.777Z,75.90
2018-12-05T23:19:53.102Z,78.00
2018-12-05T23:22:24.243Z,76.30
2018-12-05T23:24:54.476Z,78.67
2018-12-05T23:27:25.198Z,67.90
2018-12-05T23:29:55.354Z,67.77
2018-12-05T23:32:25.635Z,61.93
2018-12-05T23:34:59.544Z,43.43
2018-12-05T23:37:30.284Z,44.70
2018-12-05T23:40:00.986Z,48.20
2018-12-05T23:42:31.529Z,47.63
2018-12-05T23:45:02.375Z,44.00
2018-12-05T23:47:33.830Z,52.57
2018-12-05T23:50:03.950Z,53.30
2018-12-05T23:52:35.014Z,64.07
2018-12-05T23:55:05.715Z,70.70
2018-12-05T23:57:36.447Z,63.03
